Time;durP1;ratioP1;P1;durP2;ratioP2;P2;SDS_P1;SDS_P2;PMS_P1;PMS_P2;Temp;Humidity;BMP_temperature;BMP_pressure;BME280_temperature;BME280_humidity;BME280_pressure;Samples;Min_cycle;Max_cycle;Signal;HPM_P1;HPM_P2
2021/07/19 00:00:31;;;;;;;2.60;2.40;;;19.50;99.90;;;;;;5053065;28;20499;-75
2021/07/19 00:02:58;;;;;;;2.58;2.30;;;19.50;99.90;;;;;;5053160;28;20013;-75
2021/07/19 00:05:26;;;;;;;2.47;2.22;;;19.50;99.90;;;;;;5052720;28;20021;-75
2021/07/19 00:07:51;;;;;;;3.75;2.92;;;19.40;99.90;;;;;;5052862;28;20029;-74
2021/07/19 00:10:18;;;;;;;3.08;2.60;;;19.40;99.90;;;;;;5046782;28;20017;-74
2021/07/19 00:12:45;;;;;;;2.80;2.13;;;19.30;99.90;;;;;;5044421;28;20165;-73
2021/07/19 00:15:17;;;;;;;3.00;2.33;;;19.30;99.90;;;;;;5051347;28;20025;-74
2021/07/19 00:17:44;;;;;;;3.42;2.20;;;19.20;99.90;;;;;;5053065;28;20021;-74
2021/07/19 00:20:11;;;;;;;2.53;2.33;;;19.20;99.90;;;;;;5052727;28;20481;-74
2021/07/19 00:22:37;;;;;;;3.13;2.03;;;19.20;99.90;;;;;;5050925;28;20032;-74
2021/07/19 00:25:06;;;;;;;2.30;2.10;;;19.20;99.90;;;;;;5041544;28;20013;-75
2021/07/19 00:27:32;;;;;;;3.78;2.65;;;19.10;99.90;;;;;;5051210;28;20392;-75
2021/07/19 00:29:57;;;;;;;4.38;2.15;;;19.10;99.90;;;;;;5052924;28;20033;-74
2021/07/19 00:32:23;;;;;;;2.35;2.15;;;19.10;99.90;;;;;;5070702;28;20017;-72
2021/07/19 00:34:52;;;;;;;3.83;2.42;;;19.10;99.90;;;;;;5059454;28;20402;-75
2021/07/19 00:37:17;;;;;;;2.45;2.03;;;19.00;99.90;;;;;;5056290;28;20033;-74
2021/07/19 00:39:43;;;;;;;2.70;2.03;;;19.00;99.90;;;;;;5055580;28;20031;-74
2021/07/19 00:42:09;;;;;;;4.95;2.58;;;18.90;99.90;;;;;;5054490;28;20028;-73
2021/07/19 00:44:34;;;;;;;4.25;2.63;;;18.90;99.90;;;;;;5069621;28;20032;-73
2021/07/19 00:47:00;;;;;;;3.08;2.42;;;18.90;99.90;;;;;;5070384;28;20017;-73
2021/07/19 00:49:31;;;;;;;5.60;2.40;;;18.90;99.90;;;;;;5065812;28;20032;-72
2021/07/19 00:51:57;;;;;;;3.63;2.72;;;18.90;99.90;;;;;;5063718;28;20029;-74
2021/07/19 00:54:24;;;;;;;2.75;2.55;;;18.80;99.90;;;;;;5054140;28;20033;-74
2021/07/19 00:56:53;;;;;;;3.97;2.50;;;18.80;99.90;;;;;;5053462;28;20476;-75
2021/07/19 00:59:22;;;;;;;2.50;2.30;;;18.80;99.90;;;;;;5050971;28;20063;-74
2021/07/19 01:01:49;;;;;;;2.72;2.40;;;18.80;99.90;;;;;;5052147;28;20070;-75
2021/07/19 01:04:17;;;;;;;3.25;2.50;;;18.90;99.90;;;;;;5052232;28;20388;-75
2021/07/19 01:06:44;;;;;;;4.05;2.45;;;18.90;99.90;;;;;;5052094;28;20392;-75
2021/07/19 01:09:10;;;;;;;7.10;2.70;;;18.80;99.90;;;;;;5050342;28;20717;-75
2021/07/19 01:11:36;;;;;;;3.38;2.47;;;18.80;99.90;;;;;;5040352;28;20057;-74
2021/07/19 01:14:01;;;;;;;3.20;2.30;;;18.70;99.90;;;;;;5052306;28;20061;-74
2021/07/19 01:16:27;;;;;;;3.05;2.75;;;18.70;99.90;;;;;;5034357;28;20047;-75
2021/07/19 01:18:53;;;;;;;3.70;2.35;;;18.70;99.90;;;;;;5052051;28;20032;-74
2021/07/19 01:21:21;;;;;;;3.53;2.60;;;18.60;99.90;;;;;;5052153;28;20370;-74
2021/07/19 01:24:02;;;;;;;3.08;2.38;;;18.60;99.90;;;;;;5051883;28;20032;-74
2021/07/19 01:27:00;;;;;;;2.60;2.40;;;18.60;99.90;;;;;;5051733;28;20044;-74
2021/07/19 01:29:26;;;;;;;2.70;2.50;;;18.50;99.90;;;;;;5052075;28;20029;-74
2021/07/19 01:31:53;;;;;;;5.53;2.65;;;18.40;99.90;;;;;;5050872;28;20033;-75
2021/07/19 01:34:22;;;;;;;2.40;2.20;;;18.50;99.90;;;;;;5052167;28;20024;-74
2021/07/19 01:36:55;;;;;;;2.72;2.53;;;18.50;99.90;;;;;;5055269;28;20033;-74
2021/07/19 01:39:21;;;;;;;6.03;2.63;;;18.50;99.90;;;;;;5064137;28;20029;-74
2021/07/19 01:41:49;;;;;;;3.45;2.20;;;18.40;99.90;;;;;;5063575;28;20025;-73
2021/07/19 01:44:15;;;;;;;3.58;2.20;;;18.40;99.90;;;;;;5065680;28;20021;-73
2021/07/19 01:46:42;;;;;;;5.25;3.00;;;18.40;99.90;;;;;;5061932;28;20028;-73
2021/07/19 01:49:09;;;;;;;2.67;2.47;;;18.30;99.90;;;;;;5057410;28;20063;-73
2021/07/19 01:51:35;;;;;;;4.70;2.60;;;18.30;99.90;;;;;;5054418;28;20037;-73
2021/07/19 01:54:01;;;;;;;3.72;2.97;;;18.20;99.90;;;;;;5055528;28;20025;-75
2021/07/19 01:56:28;;;;;;;3.33;2.60;;;18.20;99.90;;;;;;5053963;28;20036;-74
2021/07/19 01:58:56;;;;;;;3.15;2.83;;;18.10;99.90;;;;;;5055128;28;20032;-73
2021/07/19 02:01:23;;;;;;;3.65;2.70;;;18.20;99.90;;;;;;5055338;28;20032;-74
2021/07/19 02:03:48;;;;;;;6.15;3.55;;;18.20;99.90;;;;;;5071755;28;20032;-72
2021/07/19 02:06:16;;;;;;;2.95;2.38;;;18.20;99.90;;;;;;5062396;28;20033;-74
2021/07/19 02:08:43;;;;;;;3.28;2.95;;;18.20;99.90;;;;;;5057396;28;20063;-74
2021/07/19 02:11:10;;;;;;;3.92;2.70;;;18.20;99.90;;;;;;5051955;28;20025;-74
2021/07/19 02:13:38;;;;;;;5.43;2.60;;;18.20;99.90;;;;;;5050766;28;20121;-74
2021/07/19 02:16:05;;;;;;;4.47;2.80;;;18.10;99.90;;;;;;5055576;28;20066;-73
2021/07/19 02:18:33;;;;;;;2.55;2.35;;;18.00;99.90;;;;;;5055332;28;20055;-74
2021/07/19 02:21:04;;;;;;;2.80;2.60;;;18.00;99.90;;;;;;5055337;28;20104;-74
2021/07/19 02:23:30;;;;;;;;;;;18.00;99.90;;;;;;5055658;28;20505;-73
2021/07/19 02:25:57;;;;;;;4.25;2.38;;;18.00;99.90;;;;;;5054754;28;19904;-73
2021/07/19 02:28:23;;;;;;;3.42;2.95;;;18.00;99.90;;;;;;5054793;28;20033;-72
2021/07/19 02:30:50;;;;;;;3.00;2.70;;;18.00;99.90;;;;;;5055095;28;20032;-74
2021/07/19 02:33:20;;;;;;;3.97;2.47;;;17.90;99.90;;;;;;5054690;28;20024;-74
2021/07/19 02:35:50;;;;;;;3.92;2.70;;;18.00;99.90;;;;;;5054418;28;20036;-73
2021/07/19 02:38:16;;;;;;;3.90;2.90;;;18.00;99.90;;;;;;5054521;28;20025;-73
2021/07/19 02:40:44;;;;;;;5.97;2.83;;;18.00;99.90;;;;;;5054670;28;20295;-75
2021/07/19 02:43:10;;;;;;;4.35;2.92;;;17.90;99.90;;;;;;5054289;28;20029;-75
2021/07/19 02:45:44;;;;;;;3.67;2.97;;;17.90;99.90;;;;;;5053226;28;20021;-75
2021/07/19 02:48:12;;;;;;;5.82;2.80;;;17.90;99.90;;;;;;5054479;28;20477;-75
2021/07/19 02:50:41;;;;;;;4.00;3.08;;;17.90;99.90;;;;;;5053862;28;20065;-74
2021/07/19 02:53:11;;;;;;;5.50;3.17;;;17.90;99.90;;;;;;5054715;28;20044;-75
2021/07/19 02:55:40;;;;;;;7.22;3.08;;;17.90;99.90;;;;;;5052759;28;20037;-73
2021/07/19 02:58:06;;;;;;;3.20;2.60;;;17.90;99.90;;;;;;5054140;28;20037;-75
2021/07/19 03:00:33;;;;;;;3.35;3.05;;;17.80;99.90;;;;;;5054314;28;20481;-73
2021/07/19 03:03:02;;;;;;;3.70;2.92;;;17.80;99.90;;;;;;5056199;28;20100;-73
2021/07/19 03:05:31;;;;;;;5.20;3.30;;;17.80;99.90;;;;;;5055437;28;20017;-74
2021/07/19 03:07:58;;;;;;;4.50;2.90;;;17.90;99.90;;;;;;5054044;28;20492;-74
2021/07/19 03:10:27;;;;;;;3.45;3.15;;;17.90;99.90;;;;;;5036001;28;20029;-74
2021/07/19 03:13:06;;;;;;;3.58;2.92;;;18.00;99.90;;;;;;5075687;22;20048;-73
2021/07/19 03:15:35;;;;;;;3.33;2.65;;;17.90;99.90;;;;;;5074114;28;20028;-74
2021/07/19 03:18:04;;;;;;;3.45;2.92;;;17.90;99.90;;;;;;5073857;28;20024;-74
2021/07/19 03:20:30;;;;;;;6.25;2.67;;;17.80;99.90;;;;;;5073391;28;20024;-74
2021/07/19 03:22:56;;;;;;;3.05;2.70;;;17.70;99.90;;;;;;5073446;28;20039;-75
2021/07/19 03:25:25;;;;;;;7.20;3.78;;;17.70;99.90;;;;;;5068785;28;20495;-74
2021/07/19 03:27:53;;;;;;;8.70;2.90;;;17.70;99.90;;;;;;5059882;28;20025;-75
2021/07/19 03:30:20;;;;;;;8.30;3.83;;;17.70;99.90;;;;;;5035557;28;20060;-74
2021/07/19 03:32:49;;;;;;;5.28;3.10;;;17.60;99.90;;;;;;5035318;28;20025;-76
2021/07/19 03:35:21;;;;;;;4.43;2.45;;;17.60;99.90;;;;;;5035189;28;20025;-74
2021/07/19 03:37:48;;;;;;;4.60;3.17;;;17.60;99.90;;;;;;5053788;28;20025;-73
2021/07/19 03:40:16;;;;;;;3.72;3.10;;;17.60;99.90;;;;;;5036143;28;20032;-73
2021/07/19 03:42:43;;;;;;;3.28;2.97;;;17.50;99.90;;;;;;5053777;28;20025;-75
2021/07/19 03:45:11;;;;;;;6.30;2.85;;;17.60;99.90;;;;;;5053788;28;20025;-75
2021/07/19 03:47:37;;;;;;;5.00;2.95;;;17.60;99.90;;;;;;5053173;28;20029;-74
2021/07/19 03:50:05;;;;;;;4.88;3.10;;;17.60;99.90;;;;;;5053279;28;20105;-74
2021/07/19 03:52:31;;;;;;;3.28;2.95;;;17.50;99.90;;;;;;5052796;28;20487;-73
2021/07/19 03:54:58;;;;;;;4.45;3.15;;;17.50;99.90;;;;;;5052677;28;20029;-74
2021/07/19 03:57:24;;;;;;;3.95;3.00;;;17.50;99.90;;;;;;5052742;28;20104;-73
2021/07/19 03:59:50;;;;;;;4.55;3.00;;;17.50;99.90;;;;;;5052744;28;20025;-74
2021/07/19 04:02:18;;;;;;;4.90;3.28;;;17.50;99.90;;;;;;5052468;28;20439;-74
2021/07/19 04:04:51;;;;;;;3.95;3.53;;;17.60;99.90;;;;;;5052447;28;20049;-73
2021/07/19 04:07:17;;;;;;;3.45;2.88;;;17.70;99.90;;;;;;5053005;28;20055;-74
2021/07/19 04:09:43;;;;;;;4.32;3.58;;;17.70;99.90;;;;;;5053854;28;20013;-75
2021/07/19 04:12:11;;;;;;;3.92;3.40;;;17.80;99.90;;;;;;5066293;28;20021;-75
2021/07/19 04:14:38;;;;;;;5.05;3.33;;;17.80;99.90;;;;;;5092573;28;20028;-75
2021/07/19 04:17:08;;;;;;;8.40;3.42;;;17.90;99.90;;;;;;5074265;28;20107;-74
2021/07/19 04:19:34;;;;;;;6.07;3.67;;;17.90;99.90;;;;;;5074522;28;20028;-73
2021/07/19 04:22:00;;;;;;;6.35;3.38;;;18.00;99.90;;;;;;5091425;28;20157;-74
2021/07/19 04:24:26;;;;;;;4.78;3.13;;;18.10;99.90;;;;;;5093475;28;20028;-74
2021/07/19 04:26:54;;;;;;;4.47;3.65;;;18.20;99.90;;;;;;5092375;28;20027;-75
2021/07/19 04:29:22;;;;;;;6.10;3.00;;;18.30;99.90;;;;;;5092478;28;20036;-74
2021/07/19 04:31:53;;;;;;;6.57;3.03;;;18.40;99.90;;;;;;5074286;28;20074;-73
2021/07/19 04:34:35;;;;;;;3.35;2.70;;;18.50;99.90;;;;;;5092434;28;20046;-75
2021/07/19 04:37:03;;;;;;;4.03;3.25;;;18.60;99.90;;;;;;5092365;28;20416;-74
2021/07/19 04:39:28;;;;;;;5.85;3.10;;;18.80;99.90;;;;;;5074621;28;20063;-73
2021/07/19 04:41:55;;;;;;;5.10;3.60;;;18.90;99.90;;;;;;5092226;28;20028;-76
2021/07/19 04:44:20;;;;;;;6.10;3.28;;;19.00;99.90;;;;;;5074088;28;20024;-74
2021/07/19 04:46:46;;;;;;;4.07;3.38;;;19.00;99.90;;;;;;5091079;28;20016;-74
2021/07/19 04:49:12;;;;;;;4.28;2.80;;;19.10;99.90;;;;;;5092271;28;20264;-75
2021/07/19 04:51:38;;;;;;;3.08;2.78;;;19.20;99.90;;;;;;5091953;28;20020;-75
2021/07/19 04:54:07;;;;;;;4.00;3.08;;;19.20;99.90;;;;;;5091795;28;20074;-75
2021/07/19 04:56:34;;;;;;;7.15;3.20;;;19.40;99.90;;;;;;5092172;28;20085;-74
2021/07/19 04:59:02;;;;;;;4.32;2.80;;;19.60;99.90;;;;;;5092038;28;20106;-74
2021/07/19 05:01:29;;;;;;;3.50;3.20;;;19.50;99.90;;;;;;5074025;28;20024;-75
2021/07/19 05:03:56;;;;;;;3.75;2.60;;;19.50;99.90;;;;;;5091893;28;20383;-75
2021/07/19 05:06:25;;;;;;;4.00;3.60;;;19.60;99.90;;;;;;5091637;28;20095;-74
2021/07/19 05:08:51;;;;;;;3.92;3.13;;;19.60;99.90;;;;;;5073549;28;20073;-73
2021/07/19 05:11:19;;;;;;;3.83;3.42;;;19.50;99.90;;;;;;5057027;28;20484;-74
2021/07/19 05:13:46;;;;;;;3.83;3.28;;;19.40;99.90;;;;;;5071157;28;20395;-74
2021/07/19 05:16:12;;;;;;;3.33;2.97;;;19.50;99.90;;;;;;5095908;28;20024;-75
2021/07/19 05:18:39;;;;;;;3.70;2.90;;;19.60;99.90;;;;;;5094555;28;20488;-74
2021/07/19 05:21:05;;;;;;;6.32;3.05;;;19.60;99.90;;;;;;5078021;28;20073;-75
2021/07/19 05:23:31;;;;;;;4.47;3.05;;;19.90;99.90;;;;;;5077579;28;20024;-75
2021/07/19 05:25:57;;;;;;;4.40;3.05;;;20.00;99.90;;;;;;5077686;28;20024;-75
2021/07/19 05:28:22;;;;;;;5.45;2.95;;;20.10;99.90;;;;;;5095818;28;20102;-75
2021/07/19 05:30:51;;;;;;;5.60;3.35;;;20.30;99.90;;;;;;5077415;28;20020;-75
2021/07/19 05:33:18;;;;;;;4.68;3.05;;;20.40;99.90;;;;;;5095622;28;20023;-75
2021/07/19 05:35:44;;;;;;;3.58;3.05;;;20.60;99.90;;;;;;5095605;28;20028;-74
2021/07/19 05:38:10;;;;;;;4.85;3.00;;;20.60;99.90;;;;;;5077160;28;20072;-74
2021/07/19 05:40:36;;;;;;;3.15;2.83;;;20.70;99.90;;;;;;5094479;28;20548;-74
2021/07/19 05:43:02;;;;;;;3.80;3.17;;;21.50;99.90;;;;;;5095468;28;20383;-75
2021/07/19 05:45:28;;;;;;;4.45;3.30;;;22.20;99.90;;;;;;5077241;28;20017;-75
2021/07/19 05:47:54;;;;;;;4.30;2.83;;;22.70;99.90;;;;;;5095230;28;20035;-74
2021/07/19 05:50:20;;;;;;;6.43;2.70;;;23.00;99.90;;;;;;5077141;28;20149;-74
2021/07/19 05:52:46;;;;;;;6.57;2.95;;;23.40;99.90;;;;;;5095310;28;20476;-74
2021/07/19 05:55:12;;;;;;;4.65;3.08;;;23.50;99.90;;;;;;5095301;28;20058;-75
2021/07/19 05:57:38;;;;;;;3.03;2.35;;;23.90;99.90;;;;;;5095158;28;20016;-75
2021/07/19 06:00:11;;;;;;;4.05;2.35;;;24.20;99.90;;;;;;5095333;28;20433;-73
2021/07/19 06:02:36;;;;;;;3.80;2.85;;;25.20;99.90;;;;;;5095180;28;20240;-74
2021/07/19 06:05:03;;;;;;;4.15;3.03;;;25.00;99.90;;;;;;5094953;28;20097;-75
2021/07/19 06:07:29;;;;;;;8.27;2.45;;;25.20;99.90;;;;;;5095030;28;20123;-75
2021/07/19 06:09:54;;;;;;;3.60;2.40;;;24.60;99.90;;;;;;5082354;28;20489;-74
2021/07/19 06:12:20;;;;;;;3.92;2.45;;;25.90;99.90;;;;;;5085073;28;20063;-74
2021/07/19 06:14:46;;;;;;;6.43;2.53;;;26.30;99.90;;;;;;5094882;28;20024;-75
2021/07/19 06:17:15;;;;;;;3.00;2.45;;;26.00;99.90;;;;;;5094871;28;20069;-73
2021/07/19 06:19:41;;;;;;;9.15;2.83;;;25.10;99.90;;;;;;5076398;28;20023;-76
2021/07/19 06:22:11;;;;;;;4.90;2.58;;;26.20;99.90;;;;;;5094693;28;20028;-75
2021/07/19 06:24:38;;;;;;;7.80;2.38;;;25.90;99.90;;;;;;5095008;28;20024;-75
2021/07/19 06:27:04;;;;;;;5.88;2.67;;;24.90;99.90;;;;;;5082228;28;20370;-74
2021/07/19 06:29:30;;;;;;;4.47;2.80;;;24.10;99.90;;;;;;5063620;28;20087;-75
2021/07/19 06:31:55;;;;;;;5.65;2.75;;;23.60;99.90;;;;;;5054292;28;20420;-74
2021/07/19 06:34:21;;;;;;;6.45;2.40;;;23.40;99.90;;;;;;5054646;28;20025;-75
2021/07/19 06:36:47;;;;;;;7.93;3.00;;;23.10;99.90;;;;;;5036426;28;20404;-75
2021/07/19 06:39:12;;;;;;;9.13;3.22;;;22.80;99.90;;;;;;5054077;28;20032;-74
2021/07/19 06:41:38;;;;;;;6.88;3.08;;;23.30;99.90;;;;;;5036283;28;20025;-75
2021/07/19 06:44:04;;;;;;;6.00;2.85;;;23.20;99.90;;;;;;5053846;28;20083;-75
2021/07/19 06:46:29;;;;;;;6.80;2.83;;;23.00;99.90;;;;;;5036335;28;20439;-75
2021/07/19 06:48:55;;;;;;;3.90;2.80;;;23.10;99.90;;;;;;5054097;28;20029;-75
2021/07/19 06:51:20;;;;;;;4.15;3.10;;;23.20;99.90;;;;;;5036157;28;20498;-74
2021/07/19 06:53:46;;;;;;;8.55;3.22;;;23.10;99.90;;;;;;5059575;28;20033;-75
2021/07/19 06:56:11;;;;;;;9.07;3.50;;;23.10;99.90;;;;;;5058417;28;20351;-76
2021/07/19 06:58:37;;;;;;;3.53;3.00;;;23.10;99.90;;;;;;5073856;28;20024;-76
2021/07/19 07:01:03;;;;;;;3.38;3.00;;;22.90;99.90;;;;;;5075428;28;20066;-76
2021/07/19 07:03:28;;;;;;;5.45;3.08;;;23.10;99.90;;;;;;5057167;28;20043;-74
2021/07/19 07:05:54;;;;;;;5.20;3.40;;;23.40;99.90;;;;;;5073602;28;20017;-76
2021/07/19 07:08:20;;;;;;;8.65;3.25;;;23.60;99.90;;;;;;5074018;28;20068;-76
2021/07/19 07:10:45;;;;;;;4.35;2.90;;;23.40;99.90;;;;;;5076408;28;20103;-76
2021/07/19 07:13:11;;;;;;;3.75;3.45;;;23.60;99.90;;;;;;5086589;28;20166;-77
2021/07/19 07:15:38;;;;;;;3.20;2.90;;;23.40;99.90;;;;;;5075937;28;20032;-75
2021/07/19 07:18:08;;;;;;;3.63;2.80;;;23.70;99.90;;;;;;5094191;28;20103;-77
2021/07/19 07:20:35;;;;;;;4.03;3.58;;;23.70;99.90;;;;;;5094292;28;20024;-76
2021/07/19 07:23:00;;;;;;;5.15;2.88;;;23.40;99.90;;;;;;5075863;28;20024;-76
2021/07/19 07:25:26;;;;;;;4.60;3.10;;;23.30;99.90;;;;;;5075731;28;20552;-77
2021/07/19 07:27:52;;;;;;;3.08;2.75;;;23.50;99.90;;;;;;5075369;28;20028;-76
2021/07/19 07:30:17;;;;;;;2.80;2.60;;;23.40;99.90;;;;;;5093539;28;20036;-76
2021/07/19 07:32:43;;;;;;;3.92;3.00;;;23.40;99.90;;;;;;5093403;28;20483;-76
2021/07/19 07:35:10;;;;;;;3.20;2.90;;;23.20;99.90;;;;;;5093615;28;20028;-76
2021/07/19 07:37:38;;;;;;;5.50;2.80;;;23.00;99.90;;;;;;5092357;28;20032;-76
2021/07/19 07:40:06;;;;;;;5.05;3.33;;;23.20;99.90;;;;;;5093878;28;20384;-76
2021/07/19 07:42:32;;;;;;;5.53;2.85;;;23.30;99.90;;;;;;5075289;28;20023;-76
2021/07/19 07:44:58;;;;;;;4.85;3.20;;;23.60;99.90;;;;;;5089321;28;20028;-77
2021/07/19 07:47:24;;;;;;;4.90;3.00;;;23.60;99.90;;;;;;5069392;28;20103;-76
2021/07/19 07:49:49;;;;;;;4.80;2.88;;;23.70;99.90;;;;;;5063161;28;20107;-75
2021/07/19 07:52:16;;;;;;;4.80;3.30;;;23.60;99.90;;;;;;5085058;28;20020;-76
2021/07/19 07:54:42;;;;;;;6.32;3.33;;;23.70;99.90;;;;;;5073744;28;20039;-76
2021/07/19 07:57:08;;;;;;;3.10;2.42;;;23.80;99.90;;;;;;5073570;28;20034;-76
2021/07/19 07:59:33;;;;;;;3.63;2.95;;;23.80;99.90;;;;;;5072165;28;20651;-76
2021/07/19 08:01:59;;;;;;;4.45;3.00;;;23.80;99.90;;;;;;5085451;28;20445;-76
2021/07/19 08:04:28;;;;;;;4.28;3.03;;;23.60;99.90;;;;;;5093720;28;20035;-76
2021/07/19 08:06:57;;;;;;;3.33;2.80;;;23.40;99.90;;;;;;5061141;28;20074;-76
2021/07/19 08:09:23;;;;;;;6.70;3.25;;;23.70;99.90;;;;;;5072893;28;20113;-75
2021/07/19 08:11:48;;;;;;;4.72;2.70;;;24.10;99.90;;;;;;5074607;28;20060;-76
2021/07/19 08:14:14;;;;;;;3.45;2.60;;;24.20;99.90;;;;;;5080894;28;20032;-75
2021/07/19 08:16:40;;;;;;;5.38;3.70;;;24.50;99.90;;;;;;5075132;28;20016;-76
2021/07/19 08:19:10;;;;;;;6.55;3.10;;;24.50;99.90;;;;;;5083431;28;20024;-76
2021/07/19 08:21:37;;;;;;;5.78;3.60;;;24.60;99.90;;;;;;5073396;28;20016;-77
2021/07/19 08:24:04;;;;;;;5.07;2.70;;;24.60;99.90;;;;;;5077650;28;20060;-75
2021/07/19 08:26:30;;;;;;;4.68;3.22;;;24.60;99.90;;;;;;5097366;28;20019;-77
2021/07/19 08:28:56;;;;;;;5.53;3.28;;;24.30;99.90;;;;;;5093093;28;20087;-76
2021/07/19 08:31:26;;;;;;;3.47;3.13;;;24.50;99.90;;;;;;5088301;28;20021;-77
2021/07/19 08:33:52;;;;;;;9.63;2.72;;;24.40;99.90;;;;;;5054472;28;20028;-76
2021/07/19 08:36:18;;;;;;;3.78;2.65;;;24.70;99.90;;;;;;5072466;28;20573;-77
2021/07/19 08:38:44;;;;;;;9.25;4.55;;;24.80;99.90;;;;;;5054566;28;20059;-76
2021/07/19 08:41:12;;;;;;;4.95;3.22;;;24.70;99.90;;;;;;5054389;28;20020;-77
2021/07/19 08:43:38;;;;;;;9.02;3.72;;;24.80;99.90;;;;;;5054688;28;20020;-76
2021/07/19 08:46:04;;;;;;;3.40;3.10;;;24.50;99.90;;;;;;5072879;28;20090;-77
2021/07/19 08:48:31;;;;;;;3.80;3.00;;;24.80;99.90;;;;;;5068032;28;20479;-77
2021/07/19 08:50:59;;;;;;;2.88;2.67;;;25.30;99.90;;;;;;5088297;28;20074;-77
2021/07/19 08:53:26;;;;;;;3.25;2.78;;;25.00;99.90;;;;;;5084741;28;20524;-77
2021/07/19 08:55:54;;;;;;;6.22;3.10;;;25.10;99.90;;;;;;5085890;28;20020;-77
2021/07/19 08:58:20;;;;;;;3.25;2.95;;;25.00;99.90;;;;;;5062829;28;20027;-76
2021/07/19 09:00:47;;;;;;;5.80;3.28;;;25.10;99.90;;;;;;5063706;28;20056;-76
2021/07/19 09:03:13;;;;;;;3.58;2.55;;;25.10;99.90;;;;;;5074037;28;20461;-79
2021/07/19 09:05:39;;;;;;;3.30;3.08;;;24.80;99.90;;;;;;5056310;28;20095;-75
2021/07/19 09:08:08;;;;;;;3.40;3.10;;;24.70;99.90;;;;;;5090750;28;20095;-76
2021/07/19 09:10:34;;;;;;;3.58;3.00;;;24.90;99.90;;;;;;5089166;28;20034;-77
2021/07/19 09:13:00;;;;;;;3.95;2.92;;;25.20;99.90;;;;;;5082713;22;20084;-71
2021/07/19 09:15:33;;;;;;;5.03;2.88;;;25.40;99.90;;;;;;5019998;28;20538;-73
2021/07/19 09:18:00;;;;;;;3.38;3.08;;;24.90;99.90;;;;;;5013650;28;20041;-72
2021/07/19 09:20:29;;;;;;;5.45;3.30;;;25.00;99.90;;;;;;5010074;28;20042;-73
2021/07/19 09:22:55;;;;;;;5.15;2.88;;;25.00;99.90;;;;;;5011558;28;20014;-72
2021/07/19 09:25:21;;;;;;;6.28;2.95;;;25.70;99.90;;;;;;5011735;28;20033;-73
2021/07/19 09:28:02;;;;;;;4.38;3.20;;;25.80;99.90;;;;;;5013174;28;20119;-72
2021/07/19 09:30:29;;;;;;;3.55;3.05;;;25.40;99.90;;;;;;5013284;28;20215;-73
2021/07/19 09:33:07;;;;;;;4.32;3.28;;;25.60;99.90;;;;;;5012748;28;20057;-72
2021/07/19 09:35:34;;;;;;;5.38;3.05;;;25.40;99.90;;;;;;5012059;28;20030;-72
2021/07/19 09:38:08;;;;;;;4.72;3.22;;;25.40;99.90;;;;;;4995269;28;20105;-75
2021/07/19 09:40:36;;;;;;;6.88;3.22;;;25.20;99.90;;;;;;4994671;28;20033;-73
2021/07/19 09:43:20;;;;;;;3.40;3.08;;;25.00;99.90;;;;;;5012677;28;20022;-72
2021/07/19 09:46:03;;;;;;;5.18;3.42;;;24.90;99.90;;;;;;5011740;28;20052;-73
2021/07/19 09:48:29;;;;;;;7.75;3.17;;;25.20;99.90;;;;;;5012226;28;20518;-71
2021/07/19 09:50:54;;;;;;;4.70;3.20;;;25.60;99.90;;;;;;5012388;28;20025;-72
2021/07/19 09:53:37;;;;;;;3.33;2.80;;;25.90;99.90;;;;;;5012721;28;20071;-73
2021/07/19 09:56:16;;;;;;;4.30;3.05;;;26.00;99.90;;;;;;5012587;28;20041;-71
2021/07/19 09:58:47;;;;;;;3.60;3.20;;;26.30;99.90;;;;;;5013111;28;20033;-72
2021/07/19 10:01:24;;;;;;;4.90;3.15;;;26.60;99.90;;;;;;5013646;28;20033;-72
2021/07/19 10:03:49;;;;;;;2.85;2.65;;;26.60;99.90;;;;;;4999174;28;20030;-72
2021/07/19 10:06:15;;;;;;;3.47;2.90;;;26.90;99.90;;;;;;5016316;28;20026;-72
2021/07/19 10:08:41;;;;;;;4.85;2.70;;;27.30;99.90;;;;;;5015443;28;20026;-72
2021/07/19 10:11:16;;;;;;;2.72;2.53;;;26.90;99.90;;;;;;5016024;28;20041;-72
2021/07/19 10:13:48;;;;;;;3.47;2.90;;;26.40;99.90;;;;;;4999097;28;20069;-72
2021/07/19 10:16:13;;;;;;;3.72;2.78;;;26.30;99.90;;;;;;4998751;28;20057;-73
2021/07/19 10:18:40;;;;;;;3.05;2.50;;;25.90;99.90;;;;;;5016330;28;20489;-74
2021/07/19 10:21:06;;;;;;;3.78;3.08;;;26.30;99.90;;;;;;5017961;28;20488;-73
2021/07/19 10:23:32;;;;;;;2.95;2.75;;;26.50;99.90;;;;;;5020212;28;20061;-72
2021/07/19 10:25:58;;;;;;;3.85;2.70;;;26.70;99.90;;;;;;5018688;28;20018;-72
2021/07/19 10:28:25;;;;;;;3.35;2.70;;;26.90;99.90;;;;;;5016061;28;20022;-73
2021/07/19 10:30:53;;;;;;;3.83;2.63;;;27.00;99.90;;;;;;5016016;28;20080;-73
2021/07/19 10:33:19;;;;;;;3.92;2.50;;;27.10;99.90;;;;;;4996443;28;20023;-71
2021/07/19 10:35:45;;;;;;;2.75;2.50;;;27.00;99.90;;;;;;4996028;28;20029;-72
2021/07/19 10:38:17;;;;;;;4.00;2.60;;;26.90;99.90;;;;;;4996609;28;20490;-72
2021/07/19 10:40:44;;;;;;;5.28;2.58;;;26.90;99.90;;;;;;4996612;28;20034;-73
2021/07/19 10:43:17;;;;;;;3.28;2.38;;;27.10;99.90;;;;;;4996362;28;20033;-72
2021/07/19 10:45:50;;;;;;;5.07;2.70;;;27.20;99.90;;;;;;4996378;28;20022;-72
2021/07/19 10:48:26;;;;;;;5.13;2.80;;;27.30;99.90;;;;;;5005211;28;20482;-72
2021/07/19 10:50:53;;;;;;;4.03;2.78;;;27.50;99.90;;;;;;5015800;28;20486;-72
2021/07/19 10:53:21;;;;;;;2.70;2.22;;;27.70;98.70;;;;;;5015760;28;20160;-72
2021/07/19 10:56:07;;;;;;;5.00;3.08;;;27.40;99.00;;;;;;5015349;28;20032;-72
2021/07/19 10:58:48;;;;;;;2.05;1.88;;;27.50;98.90;;;;;;5011258;28;20025;-74
2021/07/19 11:01:30;;;;;;;3.88;2.30;;;27.70;98.90;;;;;;5015610;28;20018;-75
2021/07/19 11:03:59;;;;;;;2.88;2.33;;;27.80;98.60;;;;;;5015850;28;20105;-75
2021/07/19 11:06:38;;;;;;;2.80;2.10;;;27.50;97.40;;;;;;5015652;28;20068;-74
2021/07/19 11:09:07;;;;;;;4.80;2.38;;;27.40;98.30;;;;;;4998617;28;20030;-73
2021/07/19 11:11:37;;;;;;;2.80;1.77;;;27.30;98.40;;;;;;5013523;28;20049;-73
2021/07/19 11:14:20;;;;;;;2.28;1.70;;;27.30;98.80;;;;;;5030555;28;20041;-74
2021/07/19 11:16:51;;;;;;;4.72;1.80;;;27.10;98.00;;;;;;5016069;28;20045;-74
2021/07/19 11:19:39;;;;;;;2.65;2.45;;;26.70;98.60;;;;;;5018001;28;20030;-74
2021/07/19 11:22:26;;;;;;;5.95;2.20;;;26.70;98.80;;;;;;5009231;28;20215;-74
2021/07/19 11:25:06;;;;;;;4.50;1.90;;;27.10;97.70;;;;;;5026792;28;20026;-73
2021/07/19 11:27:40;;;;;;;2.53;1.65;;;27.60;97.10;;;;;;5020356;28;20045;-74
2021/07/19 11:30:07;;;;;;;2.95;2.00;;;27.80;97.10;;;;;;5015880;28;20033;-73
2021/07/19 11:32:33;;;;;;;4.20;2.10;;;27.50;97.10;;;;;;5018042;28;20037;-74
2021/07/19 11:35:16;;;;;;;3.17;2.33;;;27.50;97.00;;;;;;5017466;28;20013;-74
2021/07/19 11:37:48;;;;;;;4.65;3.13;;;27.30;97.10;;;;;;5015288;28;20029;-73
2021/07/19 11:40:27;;;;;;;2.08;1.88;;;27.00;97.30;;;;;;5015173;28;20022;-74
2021/07/19 11:42:52;;;;;;;3.55;1.60;;;27.40;97.30;;;;;;5015038;28;20022;-75
2021/07/19 11:45:19;;;;;;;4.75;1.83;;;27.70;95.60;;;;;;5014905;28;20064;-74
2021/07/19 11:47:50;;;;;;;4.03;1.88;;;27.60;96.30;;;;;;5014482;28;20029;-75
2021/07/19 11:50:19;;;;;;;3.28;2.38;;;27.70;96.20;;;;;;4998731;28;20018;-75
2021/07/19 11:52:46;;;;;;;2.40;1.45;;;28.00;95.60;;;;;;4998451;28;20445;-74
2021/07/19 11:55:14;;;;;;;3.50;1.75;;;27.80;95.90;;;;;;4998106;28;20104;-73
2021/07/19 11:57:51;;;;;;;1.83;1.65;;;28.10;95.60;;;;;;5014673;28;20026;-74
2021/07/19 12:00:27;;;;;;;2.67;1.80;;;28.00;95.70;;;;;;5013869;28;20084;-75
2021/07/19 12:03:01;;;;;;;3.60;1.83;;;27.90;95.20;;;;;;5014135;28;20054;-74
2021/07/19 12:05:27;;;;;;;1.90;1.50;;;27.60;95.10;;;;;;5013971;28;20022;-75
2021/07/19 12:07:58;;;;;;;3.17;1.58;;;27.60;95.50;;;;;;5014561;28;20034;-75
2021/07/19 12:10:24;;;;;;;3.42;1.85;;;27.20;94.90;;;;;;5014676;28;20030;-74
2021/07/19 12:12:49;;;;;;;2.53;1.63;;;27.60;94.20;;;;;;5012382;28;20083;-74
2021/07/19 12:15:16;;;;;;;2.08;1.30;;;27.90;93.40;;;;;;5014001;28;20075;-74
2021/07/19 12:17:43;;;;;;;1.63;1.15;;;27.90;91.10;;;;;;5013573;28;20045;-75
2021/07/19 12:20:11;;;;;;;1.60;1.05;;;27.40;91.60;;;;;;5004158;28;20109;-76
2021/07/19 12:22:37;;;;;;;2.00;1.35;;;27.80;92.00;;;;;;5014458;28;20366;-74
2021/07/19 12:25:04;;;;;;;1.48;1.38;;;28.00;91.60;;;;;;5013267;28;20473;-75
2021/07/19 12:27:29;;;;;;;3.53;1.27;;;28.10;92.00;;;;;;5014488;28;20099;-73
2021/07/19 12:29:56;;;;;;;3.83;1.20;;;28.60;90.70;;;;;;4996067;28;20030;-74
2021/07/19 12:32:21;;;;;;;1.40;1.30;;;28.60;90.70;;;;;;5014728;28;20092;-73
2021/07/19 12:34:47;;;;;;;1.83;0.80;;;29.10;90.00;;;;;;5014863;28;20022;-73
2021/07/19 12:37:19;;;;;;;4.18;1.20;;;29.00;87.10;;;;;;5014149;28;20518;-74
2021/07/19 12:39:53;;;;;;;2.17;1.65;;;29.00;88.40;;;;;;5013858;28;20033;-74
2021/07/19 12:42:23;;;;;;;5.80;1.20;;;28.90;88.50;;;;;;4997601;28;20077;-74
2021/07/19 12:44:54;;;;;;;2.03;1.67;;;28.90;89.20;;;;;;5014506;28;20343;-74
2021/07/19 12:47:21;;;;;;;2.70;1.40;;;28.30;90.20;;;;;;5013559;28;20026;-74
2021/07/19 12:49:47;;;;;;;2.28;1.55;;;28.00;91.00;;;;;;5014769;28;20021;-75
2021/07/19 12:52:14;;;;;;;2.75;1.60;;;28.00;90.50;;;;;;5014018;28;20022;-75